Time;durP1;ratioP1;P1;durP2;ratioP2;P2;SDS_P1;SDS_P2;PMS_P1;PMS_P2;Temp;Humidity;BMP_temperature;BMP_pressure;BME280_temperature;BME280_humidity;BME280_pressure;Samples;Min_cycle;Max_cycle;Signal;HPM_P1;HPM_P2
2023/06/03 00:04:48;;;;;;;;;;;15.80;99.90;;;;;;20845927;28;20052;-76
2023/06/03 00:14:49;;;;;;;;;;;15.40;99.90;;;;;;20841411;28;19913;-75
2023/06/03 00:24:50;;;;;;;;;;;15.00;99.90;;;;;;20837277;28;19917;-76
2023/06/03 00:34:50;;;;;;;;;;;15.00;99.90;;;;;;20858266;28;19924;-76
2023/06/03 00:44:51;;;;;;;;;;;14.70;99.90;;;;;;20860473;28;19917;-77
2023/06/03 00:54:52;;;;;;;;;;;14.40;99.90;;;;;;20839962;28;19917;-77
2023/06/03 01:04:57;;;;;;;;;;;14.20;99.90;;;;;;20862184;28;19925;-77
2023/06/03 01:14:59;;;;;;;;;;;14.00;99.90;;;;;;20855916;28;20331;-77
2023/06/03 01:25:04;;;;;;;;;;;14.00;99.90;;;;;;20829811;28;20393;-77
2023/06/03 01:35:07;;;;;;;;;;;13.70;99.90;;;;;;20889119;28;19920;-77
2023/06/03 01:45:08;;;;;;;;;;;13.50;99.90;;;;;;20852248;28;20400;-76
2023/06/03 01:55:09;;;;;;;;;;;13.30;99.90;;;;;;20857607;28;19917;-75
2023/06/03 02:05:10;;;;;;;;;;;13.20;99.90;;;;;;20889392;28;19916;-76
2023/06/03 02:15:11;;;;;;;;;;;13.20;99.90;;;;;;20876826;28;20463;-77
2023/06/03 02:25:11;;;;;;;;;;;13.00;99.90;;;;;;20836715;28;19956;-77
2023/06/03 02:35:12;;;;;;;;;;;12.90;99.90;;;;;;20888852;28;19996;-76
2023/06/03 02:45:13;;;;;;;;;;;12.70;99.90;;;;;;20875429;28;19980;-76
2023/06/03 02:55:16;;;;;;;;;;;12.20;99.90;;;;;;20842624;28;19913;-76
2023/06/03 03:05:18;;;;;;;;;;;12.10;99.90;;;;;;20881068;28;20406;-76
2023/06/03 03:15:19;;;;;;;;;;;12.10;99.90;;;;;;20885618;28;20356;-76
2023/06/03 03:25:20;;;;;;;;;;;11.90;99.90;;;;;;20865122;28;19988;-76
2023/06/03 03:35:22;;;;;;;;;;;11.80;99.90;;;;;;20876976;28;20304;-76
2023/06/03 03:45:29;;;;;;;;;;;11.80;99.90;;;;;;20831081;28;20438;-75
2023/06/03 03:55:30;;;;;;;;;;;11.70;99.90;;;;;;20855749;28;19913;-76
2023/06/03 04:05:31;;;;;;;;;;;11.60;99.90;;;;;;20912497;28;19974;-76
2023/06/03 04:15:32;;;;;;;;;;;11.60;99.90;;;;;;20886252;28;19917;-76
2023/06/03 04:25:33;;;;;;;;;;;11.60;99.90;;;;;;20810171;28;19920;-76
2023/06/03 04:35:34;;;;;;;;;;;11.60;99.90;;;;;;20850933;28;19917;-76
2023/06/03 04:45:35;;;;;;;;;;;11.80;99.90;;;;;;20827960;28;19917;-77
2023/06/03 04:55:37;;;;;;;;;;;12.40;99.90;;;;;;20871184;28;19919;-77
2023/06/03 05:05:41;;;;;;;;;;;13.00;99.90;;;;;;20889235;28;19917;-77
2023/06/03 05:15:42;;;;;;;;;;;13.50;99.90;;;;;;20849970;28;19919;-77
2023/06/03 05:25:43;;;;;;;;;;;13.90;99.90;;;;;;20858098;28;20411;-77
2023/06/03 05:35:45;;;;;;;;;;;14.30;99.90;;;;;;20835018;28;19917;-77
2023/06/03 05:45:46;;;;;;;;;;;14.70;99.90;;;;;;20856776;28;19917;-77
2023/06/03 05:55:49;;;;;;;;;;;14.90;99.90;;;;;;20851248;28;19913;-76
2023/06/03 06:05:51;;;;;;;;;;;15.20;99.90;;;;;;20886125;28;19921;-76
2023/06/03 06:16:10;;;;;;;;;;;15.60;99.90;;;;;;20879391;28;19917;-75
2023/06/03 06:26:14;;;;;;;;;;;16.30;99.90;;;;;;20836874;28;20360;-75
2023/06/03 06:36:15;;;;;;;;;;;16.80;99.90;;;;;;20835709;28;20402;-76
2023/06/03 06:46:17;;;;;;;;;;;17.30;99.90;;;;;;20848079;28;19988;-76
2023/06/03 06:56:18;;;;;;;;;;;17.70;99.90;;;;;;20842898;28;19916;-76
2023/06/03 07:06:31;;;;;;;;;;;18.30;99.90;;;;;;20886995;28;20016;-76
2023/06/03 07:16:36;;;;;;;;;;;18.70;99.90;;;;;;20865226;28;19929;-75
2023/06/03 07:26:38;;;;;;;;;;;18.60;99.90;;;;;;20815477;28;20359;-75
2023/06/03 07:36:39;;;;;;;;;;;19.30;99.90;;;;;;20844578;28;20020;-75
2023/06/03 07:46:41;;;;;;;;;;;20.10;99.90;;;;;;20896488;28;20398;-75
2023/06/03 07:56:42;;;;;;;;;;;20.70;99.90;;;;;;20913338;28;19921;-75
2023/06/03 08:06:44;;;;;;;;;;;21.00;99.90;;;;;;20834545;28;19920;-76
2023/06/03 08:16:45;;;;;;;;;;;21.10;99.90;;;;;;20822556;28;19925;-75
2023/06/03 08:26:45;;;;;;;;;;;21.40;99.90;;;;;;20826745;28;19921;-76
2023/06/03 08:36:46;;;;;;;;;;;22.30;99.90;;;;;;20826585;28;20276;-77
2023/06/03 08:46:53;;;;;;;;;;;23.00;99.90;;;;;;20825370;28;19913;-76
2023/06/03 08:56:57;;;;;;;;;;;23.90;99.90;;;;;;20810659;28;19921;-78
2023/06/03 09:06:58;;;;;;;;;;;23.90;99.90;;;;;;20808037;28;20402;-76
2023/06/03 09:16:59;;;;;;;;;;;24.70;99.90;;;;;;20820542;28;19949;-76
2023/06/03 09:27:00;;;;;;;;;;;24.30;99.90;;;;;;20822364;28;19995;-76
2023/06/03 09:37:06;;;;;;;;;;;24.70;99.90;;;;;;20821802;28;19967;-76
2023/06/03 09:47:07;;;;;;;;;;;25.10;99.90;;;;;;20801519;28;20003;-76
2023/06/03 09:57:08;;;;;;;;;;;25.80;98.10;;;;;;20820895;28;19976;-77
2023/06/03 10:07:13;;;;;;;;;;;26.70;97.80;;;;;;20820684;28;19920;-77
2023/06/03 10:17:14;;;;;;;;;;;27.00;96.00;;;;;;20829222;28;19925;-77
2023/06/03 10:27:16;;;;;;;;;;;26.70;97.80;;;;;;20814572;28;19945;-77
2023/06/03 10:37:17;;;;;;;;;;;27.90;94.50;;;;;;20819477;28;20331;-76
2023/06/03 10:47:28;;;;;;;;;;;27.60;96.50;;;;;;20818392;28;19921;-77
2023/06/03 10:57:37;;;;;;;;;;;27.50;95.50;;;;;;20816930;28;19956;-77
2023/06/03 11:07:41;;;;;;;;;;;27.30;96.00;;;;;;20813416;28;19913;-76
2023/06/03 11:18:01;;;;;;;;;;;28.50;95.60;;;;;;20830704;28;20401;-77
2023/06/03 11:28:21;;;;;;;;;;;28.30;94.70;;;;;;20832075;28;20376;-76
2023/06/03 11:38:42;;;;;;;;;;;26.20;95.30;;;;;;20831449;28;19921;-76
2023/06/03 11:48:42;;;;;;;;;;;28.40;93.60;;;;;;20831876;28;19917;-76
2023/06/03 11:58:50;;;;;;;;;;;28.30;94.80;;;;;;20830686;28;19925;-76
2023/06/03 12:08:51;;;;;;;;;;;29.30;93.90;;;;;;20830481;28;19917;-76
2023/06/03 12:18:52;;;;;;;;;;;30.30;91.00;;;;;;20829878;28;19960;-77
2023/06/03 12:29:03;;;;;;;;;;;29.80;90.10;;;;;;20823499;28;20339;-76
2023/06/03 12:39:04;;;;;;;;;;;29.20;91.60;;;;;;20826807;28;19924;-75
2023/06/03 12:49:12;;;;;;;;;;;28.70;90.40;;;;;;20812451;28;19912;-76
2023/06/03 12:59:13;;;;;;;;;;;28.20;90.20;;;;;;20861718;28;20063;-76
2023/06/03 13:09:13;;;;;;;;;;;30.30;85.50;;;;;;20840454;28;19913;-77
2023/06/03 13:19:14;;;;;;;;;;;28.30;84.60;;;;;;20824061;28;19917;-77
2023/06/03 13:29:15;;;;;;;;;;;29.00;84.50;;;;;;20824808;28;20264;-76
2023/06/03 13:39:21;;;;;;;;;;;29.60;82.70;;;;;;20822548;28;21366;-76
2023/06/03 13:49:22;;;;;;;;;;;30.20;78.50;;;;;;20822886;28;20387;-75
2023/06/03 13:59:23;;;;;;;;;;;29.80;75.60;;;;;;20829949;28;20023;-76
2023/06/03 14:09:24;;;;;;;;;;;29.80;78.10;;;;;;20850129;28;20020;-76
2023/06/03 14:19:24;;;;;;;;;;;30.10;79.10;;;;;;20817351;28;19967;-76
2023/06/03 14:29:25;;;;;;;;;;;29.70;78.80;;;;;;20819734;28;19999;-76
2023/06/03 14:39:26;;;;;;;;;;;29.40;81.60;;;;;;20827000;28;20012;-76
2023/06/03 14:49:26;;;;;;;;;;;30.00;81.40;;;;;;20817153;28;20442;-77
2023/06/03 14:59:27;;;;;;;;;;;30.10;85.90;;;;;;20834135;28;20012;-76
2023/06/03 15:09:27;;;;;;;;;;;28.80;84.30;;;;;;20828602;28;20013;-76
2023/06/03 15:19:28;;;;;;;;;;;27.60;87.60;;;;;;20834342;28;19955;-76
2023/06/03 15:29:29;;;;;;;;;;;27.40;87.20;;;;;;20871706;28;19913;-76
2023/06/03 15:39:30;;;;;;;;;;;27.70;88.20;;;;;;20863503;28;19943;-76
2023/06/03 15:49:31;;;;;;;;;;;26.60;90.10;;;;;;20887815;28;19967;-76
2023/06/03 15:59:31;;;;;;;;;;;26.20;90.80;;;;;;20882995;28;19963;-76
2023/06/03 16:09:32;;;;;;;;;;;26.00;91.40;;;;;;20891218;28;20391;-77
2023/06/03 16:19:33;;;;;;;;;;;25.50;94.40;;;;;;20829634;28;19921;-77
2023/06/03 16:29:33;;;;;;;;;;;25.70;94.90;;;;;;20828989;28;19949;-76
2023/06/03 16:39:34;;;;;;;;;;;24.90;96.20;;;;;;20826449;28;19917;-76
2023/06/03 16:49:35;;;;;;;;;;;24.10;99.90;;;;;;20826909;28;20351;-77
2023/06/03 16:59:35;;;;;;;;;;;24.00;99.90;;;;;;20824579;28;19963;-77
2023/06/03 17:09:36;;;;;;;;;;;23.60;99.90;;;;;;20859221;28;19955;-77
2023/06/03 17:19:39;;;;;;;;;;;23.70;99.90;;;;;;20857928;28;20336;-77
2023/06/03 17:29:39;;;;;;;;;;;24.10;99.90;;;;;;20824216;28;19920;-76
2023/06/03 17:39:40;;;;;;;;;;;24.00;99.90;;;;;;20805817;28;20383;-77
2023/06/03 17:49:41;;;;;;;;;;;23.70;99.90;;;;;;20822662;28;19913;-77
2023/06/03 17:59:41;;;;;;;;;;;23.30;99.50;;;;;;20822174;28;19917;-77
2023/06/03 18:09:43;;;;;;;;;;;22.80;99.90;;;;;;20833554;28;20019;-77
2023/06/03 18:19:43;;;;;;;;;;;22.40;99.90;;;;;;20864217;28;19928;-76
2023/06/03 18:29:44;;;;;;;;;;;22.20;99.90;;;;;;20880269;28;20009;-76
2023/06/03 18:39:44;;;;;;;;;;;21.90;99.90;;;;;;20856718;28;19920;-75
2023/06/03 18:49:45;;;;;;;;;;;21.40;99.90;;;;;;20848842;28;19913;-75
2023/06/03 18:59:46;;;;;;;;;;;21.20;99.90;;;;;;20864206;28;19917;-75
2023/06/03 19:09:46;;;;;;;;;;;21.00;99.90;;;;;;20913713;28;19913;-75
2023/06/03 19:19:47;;;;;;;;;;;20.70;99.90;;;;;;20883832;28;19917;-76
2023/06/03 19:29:48;;;;;;;;;;;20.70;99.90;;;;;;20818367;28;19913;-75
2023/06/03 19:39:48;;;;;;;;;;;20.60;99.90;;;;;;20842869;28;19921;-75
2023/06/03 19:49:49;;;;;;;;;;;20.00;99.90;;;;;;20865794;28;19913;-75
2023/06/03 19:59:50;;;;;;;;;;;19.80;99.90;;;;;;20883322;28;19960;-76
2023/06/03 20:09:50;;;;;;;;;;;19.70;99.90;;;;;;20875618;28;19917;-76
2023/06/03 20:19:51;;;;;;;;;;;20.00;99.90;;;;;;20870250;28;19923;-76
2023/06/03 20:29:52;;;;;;;;;;;19.90;99.90;;;;;;20894205;28;19913;-76
2023/06/03 20:39:53;;;;;;;;;;;19.90;99.90;;;;;;20869630;28;19966;-76
2023/06/03 20:49:54;;;;;;;;;;;19.80;99.90;;;;;;20889033;28;19917;-76
2023/06/03 20:59:55;;;;;;;;;;;19.70;99.90;;;;;;20864932;28;20921;-76
2023/06/03 21:09:55;;;;;;;;;;;19.50;99.90;;;;;;20893067;28;19917;-76
2023/06/03 21:19:56;;;;;;;;;;;19.60;99.90;;;;;;20879636;28;19925;-77
2023/06/03 21:29:57;;;;;;;;;;;19.60;99.90;;;;;;20886471;28;19924;-76
2023/06/03 21:39:57;;;;;;;;;;;19.60;99.90;;;;;;20855009;28;19917;-75
2023/06/03 21:49:58;;;;;;;;;;;19.70;99.90;;;;;;20863636;28;19935;-75
2023/06/03 21:59:58;;;;;;;;;;;19.60;99.90;;;;;;20872694;28;19924;-77
2023/06/03 22:09:59;;;;;;;;;;;19.20;99.90;;;;;;20886163;28;19913;-76
2023/06/03 22:20:00;;;;;;;;;;;18.80;99.90;;;;;;20860290;28;20016;-77
2023/06/03 22:30:00;;;;;;;;;;;18.60;99.90;;;;;;20822858;28;20011;-76
2023/06/03 22:40:01;;;;;;;;;;;18.50;99.90;;;;;;20824068;28;20403;-76
2023/06/03 22:50:02;;;;;;;;;;;18.50;99.90;;;;;;20863305;28;19952;-77
2023/06/03 23:00:03;;;;;;;;;;;18.50;99.90;;;;;;20912584;28;20011;-76
2023/06/03 23:10:04;;;;;;;;;;;18.30;99.90;;;;;;20887322;28;19924;-76
2023/06/03 23:20:15;;;;;;;;;;;18.30;99.90;;;;;;20852077;28;20264;-76
2023/06/03 23:30:16;;;;;;;;;;;18.30;99.90;;;;;;20875496;28;19913;-76
2023/06/03 23:40:16;;;;;;;;;;;18.30;99.90;;;;;;20881598;28;19925;-76
2023/06/03 23:50:17;;;;;;;;;;;18.20;99.90;;;;;;20886106;28;20376;-77
